sensor_id;sensor_type;location;lat;lon;timestamp;pressure;altitude;pressure_sealevel;temperature;humidity
24390;BME280;12510;56.468;-3.004;2023-11-19T00:01:23;48847.56;;;-148.32;100.00
24390;BME280;12510;56.468;-3.004;2023-11-19T00:03:49;49191.72;;;-148.32;100.00
24390;BME280;12510;56.468;-3.004;2023-11-19T00:06:15;49179.78;;;-148.32;100.00
24390;BME280;12510;56.468;-3.004;2023-11-19T00:08:42;48748.13;;;-148.32;100.00
24390;BME280;12510;56.468;-3.004;2023-11-19T00:11:11;48421.94;;;-148.32;100.00
24390;BME280;12510;56.468;-3.004;2023-11-19T00:13:41;47423.63;;;-148.32;100.00
24390;BME280;12510;56.468;-3.004;2023-11-19T00:16:07;47797.47;;;-148.32;100.00
24390;BME280;12510;56.468;-3.004;2023-11-19T00:18:35;48704.34;;;-148.32;100.00
24390;BME280;12510;56.468;-3.004;2023-11-19T00:21:04;48451.75;;;-148.32;100.00
24390;BME280;12510;56.468;-3.004;2023-11-19T00:23:30;48887.34;;;-148.32;100.00
24390;BME280;12510;56.468;-3.004;2023-11-19T00:25:56;48553.19;;;-148.32;100.00
24390;BME280;12510;56.468;-3.004;2023-11-19T00:28:23;48839.63;;;-148.32;100.00
24390;BME280;12510;56.468;-3.004;2023-11-19T00:30:50;49173.81;;;-148.32;100.00
24390;BME280;12510;56.468;-3.004;2023-11-19T00:33:16;48943.06;;;-148.32;100.00
24390;BME280;12510;56.468;-3.004;2023-11-19T00:35:42;49175.78;;;-148.32;100.00
24390;BME280;12510;56.468;-3.004;2023-11-19T00:38:08;47634.41;;;-148.32;100.00
24390;BME280;12510;56.468;-3.004;2023-11-19T00:40:34;49209.59;;;-148.32;100.00
24390;BME280;12510;56.468;-3.004;2023-11-19T00:43:00;48055.97;;;-148.32;100.00
24390;BME280;12510;56.468;-3.004;2023-11-19T00:45:26;47741.78;;;-148.32;100.00
24390;BME280;12510;56.468;-3.004;2023-11-19T00:47:53;46455.38;;;-148.32;100.00
24390;BME280;12510;56.468;-3.004;2023-11-19T00:50:19;46278.47;;;-148.32;100.00
24390;BME280;12510;56.468;-3.004;2023-11-19T00:52:46;47204.91;;;-148.32;100.00
24390;BME280;12510;56.468;-3.004;2023-11-19T00:55:13;47210.88;;;-148.32;100.00
24390;BME280;12510;56.468;-3.004;2023-11-19T00:57:40;47256.59;;;-148.32;100.00
24390;BME280;12510;56.468;-3.004;2023-11-19T01:00:06;47527.03;;;-148.32;100.00
24390;BME280;12510;56.468;-3.004;2023-11-19T01:02:53;45606.63;;;-148.32;100.00
24390;BME280;12510;56.468;-3.004;2023-11-19T01:05:20;48533.31;;;-148.32;100.00
24390;BME280;12510;56.468;-3.004;2023-11-19T01:07:49;48330.44;;;-148.32;100.00
24390;BME280;12510;56.468;-3.004;2023-11-19T01:10:16;47926.72;;;-148.32;100.00
24390;BME280;12510;56.468;-3.004;2023-11-19T01:12:42;49213.59;;;-148.32;100.00
24390;BME280;12510;56.468;-3.004;2023-11-19T01:15:08;48467.66;;;-148.32;100.00
24390;BME280;12510;56.468;-3.004;2023-11-19T01:17:36;48680.50;;;-148.32;100.00
24390;BME280;12510;56.468;-3.004;2023-11-19T01:20:02;48282.69;;;-148.32;100.00
24390;BME280;12510;56.468;-3.004;2023-11-19T01:22:29;47791.50;;;-148.32;100.00
24390;BME280;12510;56.468;-3.004;2023-11-19T01:24:55;48801.81;;;-148.32;100.00
24390;BME280;12510;56.468;-3.004;2023-11-19T01:27:22;49623.41;;;-148.32;100.00
24390;BME280;12510;56.468;-3.004;2023-11-19T01:29:48;50301.88;;;-148.32;100.00
24390;BME280;12510;56.468;-3.004;2023-11-19T01:32:14;48955.00;;;-148.32;100.00
24390;BME280;12510;56.468;-3.004;2023-11-19T01:34:40;49165.84;;;-148.32;100.00
24390;BME280;12510;56.468;-3.004;2023-11-19T01:37:07;49722.88;;;-148.32;100.00
24390;BME280;12510;56.468;-3.004;2023-11-19T01:39:36;49289.19;;;-148.32;100.00
24390;BME280;12510;56.468;-3.004;2023-11-19T01:42:02;49229.50;;;-148.32;100.00
24390;BME280;12510;56.468;-3.004;2023-11-19T01:44:28;48863.50;;;-148.32;100.00
24390;BME280;12510;56.468;-3.004;2023-11-19T01:46:54;49145.94;;;-148.32;100.00
24390;BME280;12510;56.468;-3.004;2023-11-19T01:49:20;49663.19;;;-148.32;100.00
24390;BME280;12510;56.468;-3.004;2023-11-19T01:51:47;49422.47;;;-148.32;100.00
24390;BME280;12510;56.468;-3.004;2023-11-19T01:54:14;49185.75;;;-148.32;100.00
24390;BME280;12510;56.468;-3.004;2023-11-19T01:56:41;49376.72;;;-148.32;100.00
24390;BME280;12510;56.468;-3.004;2023-11-19T01:59:09;49547.81;;;-148.32;100.00
24390;BME280;12510;56.468;-3.004;2023-11-19T02:01:36;48859.50;;;-148.32;100.00
24390;BME280;12510;56.468;-3.004;2023-11-19T02:04:06;49207.63;;;-148.32;100.00
24390;BME280;12510;56.468;-3.004;2023-11-19T02:06:33;49446.34;;;-148.32;100.00
24390;BME280;12510;56.468;-3.004;2023-11-19T02:09:00;49565.72;;;-148.32;100.00
24390;BME280;12510;56.468;-3.004;2023-11-19T02:11:28;49527.91;;;-148.32;100.00
24390;BME280;12510;56.468;-3.004;2023-11-19T02:13:55;49728.84;;;-148.32;100.00
24390;BME280;12510;56.468;-3.004;2023-11-19T02:16:22;50158.63;;;-148.32;100.00
24390;BME280;12510;56.468;-3.004;2023-11-19T02:18:48;50192.44;;;-148.32;100.00
24390;BME280;12510;56.468;-3.004;2023-11-19T02:21:14;50252.16;;;-148.32;100.00
24390;BME280;12510;56.468;-3.004;2023-11-19T02:23:41;50640.19;;;-148.32;100.00
24390;BME280;12510;56.468;-3.004;2023-11-19T02:28:42;50566.56;;;-148.32;100.00
24390;BME280;12510;56.468;-3.004;2023-11-19T02:31:09;50401.38;;;-148.32;100.00
24390;BME280;12510;56.468;-3.004;2023-11-19T02:33:36;50061.13;;;-148.32;100.00
24390;BME280;12510;56.468;-3.004;2023-11-19T02:36:06;49868.13;;;-148.32;100.00
24390;BME280;12510;56.468;-3.004;2023-11-19T02:38:33;50419.28;;;-148.32;100.00
24390;BME280;12510;56.468;-3.004;2023-11-19T02:40:59;50194.44;;;-148.32;100.00
24390;BME280;12510;56.468;-3.004;2023-11-19T02:43:31;50126.78;;;-148.32;100.00
24390;BME280;12510;56.468;-3.004;2023-11-19T02:46:00;49623.41;;;-148.32;100.00
24390;BME280;12510;56.468;-3.004;2023-11-19T02:48:26;50206.38;;;-148.32;100.00
24390;BME280;12510;56.468;-3.004;2023-11-19T02:50:52;50264.09;;;-148.32;100.00
24390;BME280;12510;56.468;-3.004;2023-11-19T02:53:19;50377.50;;;-148.32;100.00
24390;BME280;12510;56.468;-3.004;2023-11-19T02:55:47;50469.03;;;-148.32;100.00
24390;BME280;12510;56.468;-3.004;2023-11-19T02:58:16;50154.66;;;-148.32;100.00
24390;BME280;12510;56.468;-3.004;2023-11-19T03:00:49;50453.13;;;-148.32;100.00
24390;BME280;12510;56.468;-3.004;2023-11-19T03:03:28;49993.47;;;-148.32;100.00
24390;BME280;12510;56.468;-3.004;2023-11-19T03:06:07;50361.59;;;-148.32;100.00
24390;BME280;12510;56.468;-3.004;2023-11-19T03:08:35;49812.41;;;-148.32;100.00
24390;BME280;12510;56.468;-3.004;2023-11-19T03:11:02;50136.72;;;-148.32;100.00
24390;BME280;12510;56.468;-3.004;2023-11-19T03:13:28;50566.56;;;-148.32;100.00
24390;BME280;12510;56.468;-3.004;2023-11-19T03:15:54;49979.53;;;-148.32;100.00
24390;BME280;12510;56.468;-3.004;2023-11-19T03:18:20;50136.72;;;-148.32;100.00
24390;BME280;12510;56.468;-3.004;2023-11-19T03:20:47;50463.06;;;-148.32;100.00
24390;BME280;12510;56.468;-3.004;2023-11-19T03:23:13;50043.22;;;-148.32;100.00
24390;BME280;12510;56.468;-3.004;2023-11-19T03:25:40;50096.94;;;-148.32;100.00
24390;BME280;12510;56.468;-3.004;2023-11-19T03:28:06;50367.56;;;-148.32;100.00
24390;BME280;12510;56.468;-3.004;2023-11-19T03:30:32;50387.44;;;-148.32;100.00
24390;BME280;12510;56.468;-3.004;2023-11-19T03:32:58;50765.56;;;-148.32;100.00
24390;BME280;12510;56.468;-3.004;2023-11-19T03:35:26;50922.78;;;-148.32;100.00
24390;BME280;12510;56.468;-3.004;2023-11-19T03:37:53;51302.91;;;-148.32;100.00
24390;BME280;12510;56.468;-3.004;2023-11-19T03:40:20;51143.69;;;-148.32;100.00
24390;BME280;12510;56.468;-3.004;2023-11-19T03:42:47;51290.97;;;-148.32;100.00
24390;BME280;12510;56.468;-3.004;2023-11-19T03:45:13;51281.03;;;-148.32;100.00
24390;BME280;12510;56.468;-3.004;2023-11-19T03:47:40;51414.38;;;-148.32;100.00
24390;BME280;12510;56.468;-3.004;2023-11-19T03:50:06;51251.16;;;-148.32;100.00
24390;BME280;12510;56.468;-3.004;2023-11-19T03:52:34;51298.94;;;-148.32;100.00
24390;BME280;12510;56.468;-3.004;2023-11-19T03:55:00;50713.81;;;-148.32;100.00
24390;BME280;12510;56.468;-3.004;2023-11-19T03:57:27;51157.63;;;-148.32;100.00
24390;BME280;12510;56.468;-3.004;2023-11-19T03:59:54;51251.16;;;-148.32;100.00
24390;BME280;12510;56.468;-3.004;2023-11-19T04:02:21;51279.03;;;-148.32;100.00
24390;BME280;12510;56.468;-3.004;2023-11-19T04:04:47;51119.81;;;-148.32;100.00
24390;BME280;12510;56.468;-3.004;2023-11-19T04:07:14;51275.06;;;-148.32;100.00
24390;BME280;12510;56.468;-3.004;2023-11-19T04:09:41;51314.84;;;-148.32;100.00
24390;BME280;12510;56.468;-3.004;2023-11-19T04:12:07;51306.91;;;-148.32;100.00
24390;BME280;12510;56.468;-3.004;2023-11-19T04:14:34;51621.38;;;-148.32;100.00
24390;BME280;12510;56.468;-3.004;2023-11-19T04:17:00;51631.34;;;-148.32;100.00
24390;BME280;12510;56.468;-3.004;2023-11-19T04:19:26;51627.34;;;-148.32;100.00
24390;BME280;12510;56.468;-3.004;2023-11-19T04:21:52;51358.66;;;-148.32;100.00
24390;BME280;12510;56.468;-3.004;2023-11-19T04:24:18;51667.16;;;-148.32;100.00
24390;BME280;12510;56.468;-3.004;2023-11-19T04:26:45;51635.31;;;-148.32;100.00
24390;BME280;12510;56.468;-3.004;2023-11-19T04:29:12;51840.34;;;-148.32;100.00
24390;BME280;12510;56.468;-3.004;2023-11-19T04:31:38;51732.84;;;-148.32;100.00
24390;BME280;12510;56.468;-3.004;2023-11-19T04:34:05;51708.97;;;-148.32;100.00
24390;BME280;12510;56.468;-3.004;2023-11-19T04:36:34;51856.28;;;-148.32;100.00
24390;BME280;12510;56.468;-3.004;2023-11-19T04:39:01;51925.94;;;-148.32;100.00
24390;BME280;12510;56.468;-3.004;2023-11-19T04:41:27;52027.47;;;-148.32;100.00
24390;BME280;12510;56.468;-3.004;2023-11-19T04:43:53;51977.69;;;-148.32;100.00
24390;BME280;12510;56.468;-3.004;2023-11-19T04:46:20;51963.75;;;-148.32;100.00
24390;BME280;12510;56.468;-3.004;2023-11-19T04:48:46;51969.75;;;-148.32;100.00
24390;BME280;12510;56.468;-3.004;2023-11-19T04:51:13;52105.09;;;-148.32;100.00
24390;BME280;12510;56.468;-3.004;2023-11-19T04:53:39;52027.47;;;-148.32;100.00
24390;BME280;12510;56.468;-3.004;2023-11-19T04:56:08;51941.88;;;-148.32;100.00
24390;BME280;12510;56.468;-3.004;2023-11-19T04:58:35;51939.88;;;-148.32;100.00
24390;BME280;12510;56.468;-3.004;2023-11-19T05:01:04;51862.25;;;-148.32;100.00
24390;BME280;12510;56.468;-3.004;2023-11-19T05:03:31;51985.66;;;-148.32;100.00
24390;BME280;12510;56.468;-3.004;2023-11-19T05:05:57;52093.16;;;-148.32;100.00
24390;BME280;12510;56.468;-3.004;2023-11-19T05:08:24;52190.72;;;-148.32;100.00
24390;BME280;12510;56.468;-3.004;2023-11-19T05:10:50;52091.16;;;-148.32;100.00
24390;BME280;12510;56.468;-3.004;2023-11-19T05:13:16;52003.59;;;-148.32;100.00
24390;BME280;12510;56.468;-3.004;2023-11-19T05:15:43;51957.78;;;-148.32;100.00
24390;BME280;12510;56.468;-3.004;2023-11-19T05:18:09;51609.44;;;-148.32;100.00
24390;BME280;12510;56.468;-3.004;2023-11-19T05:20:35;51786.59;;;-148.32;100.00
24390;BME280;12510;56.468;-3.004;2023-11-19T05:23:01;51993.63;;;-148.32;100.00
24390;BME280;12510;56.468;-3.004;2023-11-19T05:25:27;51908.03;;;-148.32;100.00
24390;BME280;12510;56.468;-3.004;2023-11-19T05:27:53;51937.88;;;-148.32;100.00
24390;BME280;12510;56.468;-3.004;2023-11-19T05:30:20;52019.50;;;-148.32;100.00
24390;BME280;12510;56.468;-3.004;2023-11-19T05:32:46;52033.44;;;-148.32;100.00
24390;BME280;12510;56.468;-3.004;2023-11-19T05:35:12;52119.03;;;-148.32;100.00
24390;BME280;12510;56.468;-3.004;2023-11-19T05:37:38;52007.56;;;-148.32;100.00
24390;BME280;12510;56.468;-3.004;2023-11-19T05:40:05;52061.31;;;-148.32;100.00
24390;BME280;12510;56.468;-3.004;2023-11-19T05:42:38;51898.06;;;-148.32;100.00
24390;BME280;12510;56.468;-3.004;2023-11-19T05:47:30;51545.75;;;-148.32;100.00
24390;BME280;12510;56.468;-3.004;2023-11-19T05:49:56;51695.03;;;-148.32;100.00
24390;BME280;12510;56.468;-3.004;2023-11-19T05:52:22;51490.00;;;-148.32;100.00
24390;BME280;12510;56.468;-3.004;2023-11-19T05:54:49;51701.00;;;-148.32;100.00
24390;BME280;12510;56.468;-3.004;2023-11-19T05:57:17;51557.69;;;-148.32;100.00
24390;BME280;12510;56.468;-3.004;2023-11-19T05:59:49;51521.84;;;-148.32;100.00
24390;BME280;12510;56.468;-3.004;2023-11-19T06:02:16;51549.72;;;-148.32;100.00
24390;BME280;12510;56.468;-3.004;2023-11-19T06:04:42;51553.72;;;-148.32;100.00
24390;BME280;12510;56.468;-3.004;2023-11-19T06:07:10;51860.25;;;-148.32;100.00
24390;BME280;12510;56.468;-3.004;2023-11-19T06:09:36;51880.16;;;-148.32;100.00
24390;BME280;12510;56.468;-3.004;2023-11-19T06:12:02;52025.47;;;-148.32;100.00
24390;BME280;12510;56.468;-3.004;2023-11-19T06:14:29;51914.00;;;-148.32;100.00
24390;BME280;12510;56.468;-3.004;2023-11-19T06:16:55;51882.16;;;-148.32;100.00
24390;BME280;12510;56.468;-3.004;2023-11-19T06:19:22;52132.97;;;-148.32;100.00
24390;BME280;12510;56.468;-3.004;2023-11-19T06:21:50;51840.34;;;-148.32;100.00
24390;BME280;12510;56.468;-3.004;2023-11-19T06:24:16;51830.41;;;-148.32;100.00
24390;BME280;12510;56.468;-3.004;2023-11-19T06:26:43;51701.00;;;-148.32;100.00
24390;BME280;12510;56.468;-3.004;2023-11-19T06:29:09;51824.41;;;-148.32;100.00
24390;BME280;12510;56.468;-3.004;2023-11-19T06:31:35;51625.38;;;-148.32;100.00
24390;BME280;12510;56.468;-3.004;2023-11-19T06:34:02;51752.75;;;-148.32;100.00
24390;BME280;12510;56.468;-3.004;2023-11-19T06:36:29;51983.69;;;-148.32;100.00
24390;BME280;12510;56.468;-3.004;2023-11-19T06:38:55;52051.34;;;-148.32;100.00
24390;BME280;12510;56.468;-3.004;2023-11-19T06:41:22;52170.81;;;-148.32;100.00
24390;BME280;12510;56.468;-3.004;2023-11-19T06:43:48;52119.03;;;-148.32;100.00
24390;BME280;12510;56.468;-3.004;2023-11-19T06:46:17;52242.47;;;-148.32;100.00
24390;BME280;12510;56.468;-3.004;2023-11-19T06:48:44;52228.53;;;-148.32;100.00
24390;BME280;12510;56.468;-3.004;2023-11-19T06:51:11;52166.81;;;-148.32;100.00
24390;BME280;12510;56.468;-3.004;2023-11-19T06:53:37;52218.59;;;-148.32;100.00
24390;BME280;12510;56.468;-3.004;2023-11-19T06:56:03;52266.38;;;-148.32;100.00
24390;BME280;12510;56.468;-3.004;2023-11-19T06:58:35;52234.50;;;-148.32;100.00
24390;BME280;12510;56.468;-3.004;2023-11-19T07:01:01;52286.28;;;-148.32;100.00
24390;BME280;12510;56.468;-3.004;2023-11-19T07:03:27;52326.09;;;-148.32;100.00
24390;BME280;12510;56.468;-3.004;2023-11-19T07:05:54;52338.03;;;-148.32;100.00
24390;BME280;12510;56.468;-3.004;2023-11-19T07:08:21;52264.38;;;-148.32;100.00
24390;BME280;12510;56.468;-3.004;2023-11-19T07:10:47;52236.50;;;-148.32;100.00
24390;BME280;12510;56.468;-3.004;2023-11-19T07:13:14;52324.09;;;-148.32;100.00
24390;BME280;12510;56.468;-3.004;2023-11-19T07:15:40;52338.03;;;-148.32;100.00
24390;BME280;12510;56.468;-3.004;2023-11-19T07:18:07;52134.97;;;-148.32;100.00
24390;BME280;12510;56.468;-3.004;2023-11-19T07:20:33;52099.13;;;-148.32;100.00
24390;BME280;12510;56.468;-3.004;2023-11-19T07:22:59;52055.34;;;-148.32;100.00
24390;BME280;12510;56.468;-3.004;2023-11-19T07:25:25;52107.09;;;-148.32;100.00
24390;BME280;12510;56.468;-3.004;2023-11-19T07:27:52;51890.13;;;-148.32;100.00
24390;BME280;12510;56.468;-3.004;2023-11-19T07:30:19;51848.31;;;-148.32;100.00
24390;BME280;12510;56.468;-3.004;2023-11-19T07:32:45;51772.66;;;-148.32;100.00
24390;BME280;12510;56.468;-3.004;2023-11-19T07:35:11;51796.56;;;-148.32;100.00
24390;BME280;12510;56.468;-3.004;2023-11-19T07:37:38;51816.47;;;-148.32;100.00
24390;BME280;12510;56.468;-3.004;2023-11-19T07:40:05;51870.22;;;-148.32;100.00
24390;BME280;12510;56.468;-3.004;2023-11-19T07:42:31;51637.31;;;-148.32;100.00
24390;BME280;12510;56.468;-3.004;2023-11-19T07:44:57;51784.59;;;-148.32;100.00
24390;BME280;12510;56.468;-3.004;2023-11-19T07:47:24;51519.88;;;-148.32;100.00
24390;BME280;12510;56.468;-3.004;2023-11-19T07:49:50;51681.09;;;-148.32;100.00
24390;BME280;12510;56.468;-3.004;2023-11-19T07:52:16;51501.94;;;-148.32;100.00
24390;BME280;12510;56.468;-3.004;2023-11-19T07:54:42;51541.75;;;-148.32;100.00
24390;BME280;12510;56.468;-3.004;2023-11-19T07:57:09;51454.19;;;-148.32;100.00
24390;BME280;12510;56.468;-3.004;2023-11-19T07:59:35;51460.16;;;-148.32;100.00
24390;BME280;12510;56.468;-3.004;2023-11-19T08:02:01;51249.19;;;-148.32;100.00
24390;BME280;12510;56.468;-3.004;2023-11-19T08:04:27;51424.31;;;-148.32;100.00
24390;BME280;12510;56.468;-3.004;2023-11-19T08:06:53;51044.19;;;-148.32;100.00
24390;BME280;12510;56.468;-3.004;2023-11-19T08:09:19;50948.66;;;-148.32;100.00
24390;BME280;12510;56.468;-3.004;2023-11-19T08:11:45;51316.84;;;-148.32;100.00
24390;BME280;12510;56.468;-3.004;2023-11-19T08:14:12;51024.28;;;-148.32;100.00
24390;BME280;12510;56.468;-3.004;2023-11-19T08:16:39;51062.09;;;-148.32;100.00
24390;BME280;12510;56.468;-3.004;2023-11-19T08:19:05;51358.66;;;-148.32;100.00
24390;BME280;12510;56.468;-3.004;2023-11-19T08:21:31;51269.06;;;-148.32;100.00
24390;BME280;12510;56.468;-3.004;2023-11-19T08:23:58;51537.78;;;-148.32;100.00
24390;BME280;12510;56.468;-3.004;2023-11-19T08:26:24;51651.25;;;-148.32;100.00
24390;BME280;12510;56.468;-3.004;2023-11-19T08:28:50;51185.47;;;-148.32;100.00
24390;BME280;12510;56.468;-3.004;2023-11-19T08:31:17;51503.94;;;-148.32;100.00
24390;BME280;12510;56.468;-3.004;2023-11-19T08:33:44;51422.34;;;-148.32;100.00
24390;BME280;12510;56.468;-3.004;2023-11-19T08:36:14;51503.94;;;-148.32;100.00
24390;BME280;12510;56.468;-3.004;2023-11-19T08:38:41;51631.34;;;-148.32;100.00
24390;BME280;12510;56.468;-3.004;2023-11-19T08:41:08;51203.41;;;-148.32;100.00
24390;BME280;12510;56.468;-3.004;2023-11-19T08:43:34;51581.56;;;-148.32;100.00
24390;BME280;12510;56.468;-3.004;2023-11-19T08:46:00;51744.78;;;-148.32;100.00
24390;BME280;12510;56.468;-3.004;2023-11-19T08:48:26;51872.19;;;-148.32;100.00
24390;BME280;12510;56.468;-3.004;2023-11-19T08:50:52;51923.94;;;-148.32;100.00
24390;BME280;12510;56.468;-3.004;2023-11-19T08:53:18;51923.94;;;-148.32;100.00
24390;BME280;12510;56.468;-3.004;2023-11-19T08:55:44;52226.53;;;-148.32;100.00
24390;BME280;12510;56.468;-3.004;2023-11-19T08:58:11;52320.13;;;-148.32;100.00
24390;BME280;12510;56.468;-3.004;2023-11-19T09:00:37;52300.22;;;-148.32;100.00
24390;BME280;12510;56.468;-3.004;2023-11-19T09:03:03;52298.22;;;-148.32;100.00
24390;BME280;12510;56.468;-3.004;2023-11-19T09:05:29;52363.91;;;-148.32;100.00
24390;BME280;12510;56.468;-3.004;2023-11-19T09:07:55;52258.41;;;-148.32;100.00
24390;BME280;12510;56.468;-3.004;2023-11-19T09:10:22;52322.09;;;-148.32;100.00
24390;BME280;12510;56.468;-3.004;2023-11-19T09:12:48;52377.84;;;-148.32;100.00
24390;BME280;12510;56.468;-3.004;2023-11-19T09:15:14;52314.16;;;-148.32;100.00
24390;BME280;12510;56.468;-3.004;2023-11-19T09:17:40;52457.50;;;-148.32;100.00
24390;BME280;12510;56.468;-3.004;2023-11-19T09:20:06;52461.47;;;-148.32;100.00
24390;BME280;12510;56.468;-3.004;2023-11-19T09:22:34;52399.75;;;-148.32;100.00
24390;BME280;12510;56.468;-3.004;2023-11-19T09:25:00;52363.91;;;-148.32;100.00
24390;BME280;12510;56.468;-3.004;2023-11-19T09:27:26;52567.00;;;-148.32;100.00
24390;BME280;12510;56.468;-3.004;2023-11-19T09:29:52;52594.88;;;-148.32;100.00
24390;BME280;12510;56.468;-3.004;2023-11-19T09:32:23;52692.44;;;-148.32;100.00
24390;BME280;12510;56.468;-3.004;2023-11-19T09:34:49;52616.78;;;-148.32;100.00
24390;BME280;12510;56.468;-3.004;2023-11-19T09:37:16;52578.94;;;-148.32;100.00
24390;BME280;12510;56.468;-3.004;2023-11-19T09:39:42;52598.84;;;-148.32;100.00
24390;BME280;12510;56.468;-3.004;2023-11-19T09:42:09;52509.25;;;-148.32;100.00
24390;BME280;12510;56.468;-3.004;2023-11-19T09:44:36;52549.06;;;-148.32;100.00
24390;BME280;12510;56.468;-3.004;2023-11-19T09:47:03;52543.09;;;-148.32;100.00
24390;BME280;12510;56.468;-3.004;2023-11-19T09:49:30;52519.22;;;-148.32;100.00
24390;BME280;12510;56.468;-3.004;2023-11-19T09:51:56;52433.59;;;-148.32;100.00
24390;BME280;12510;56.468;-3.004;2023-11-19T09:54:22;52385.81;;;-148.32;100.00
24390;BME280;12510;56.468;-3.004;2023-11-19T09:56:49;52349.97;;;-148.32;100.00
24390;BME280;12510;56.468;-3.004;2023-11-19T09:59:15;52387.81;;;-148.32;100.00
24390;BME280;12510;56.468;-3.004;2023-11-19T10:01:42;52218.59;;;-148.32;100.00
24390;BME280;12510;56.468;-3.004;2023-11-19T10:04:09;52308.16;;;-148.32;100.00
24390;BME280;12510;56.468;-3.004;2023-11-19T10:06:35;52310.16;;;-148.32;100.00
24390;BME280;12510;56.468;-3.004;2023-11-19T10:09:02;52346.00;;;-148.32;100.00
24390;BME280;12510;56.468;-3.004;2023-11-19T10:11:30;52373.88;;;-148.32;100.00
24390;BME280;12510;56.468;-3.004;2023-11-19T10:13:57;52401.75;;;-148.32;100.00
24390;BME280;12510;56.468;-3.004;2023-11-19T10:16:27;52453.50;;;-148.32;100.00
24390;BME280;12510;56.468;-3.004;2023-11-19T10:18:55;52381.84;;;-148.32;100.00
24390;BME280;12510;56.468;-3.004;2023-11-19T10:21:21;52286.28;;;-148.32;100.00
24390;BME280;12510;56.468;-3.004;2023-11-19T10:26:14;52318.13;;;-148.32;100.00
24390;BME280;12510;56.468;-3.004;2023-11-19T10:28:40;52242.47;;;-148.32;100.00
24390;BME280;12510;56.468;-3.004;2023-11-19T10:31:14;52250.44;;;-148.32;100.00
24390;BME280;12510;56.468;-3.004;2023-11-19T10:33:40;52150.91;;;-148.32;100.00
24390;BME280;12510;56.468;-3.004;2023-11-19T10:36:07;52131.00;;;-148.32;100.00
24390;BME280;12510;56.468;-3.004;2023-11-19T10:38:33;52115.06;;;-148.32;100.00
24390;BME280;12510;56.468;-3.004;2023-11-19T10:40:59;52045.38;;;-148.32;100.00
24390;BME280;12510;56.468;-3.004;2023-11-19T10:43:25;51957.78;;;-148.32;100.00
24390;BME280;12510;56.468;-3.004;2023-11-19T10:45:52;52013.53;;;-148.32;100.00
24390;BME280;12510;56.468;-3.004;2023-11-19T10:48:18;52140.94;;;-148.32;100.00
24390;BME280;12510;56.468;-3.004;2023-11-19T10:50:44;52200.66;;;-148.32;100.00
24390;BME280;12510;56.468;-3.004;2023-11-19T10:53:12;52033.44;;;-148.32;100.00
24390;BME280;12510;56.468;-3.004;2023-11-19T10:55:45;52039.41;;;-148.32;100.00
24390;BME280;12510;56.468;-3.004;2023-11-19T10:58:13;51840.34;;;-148.32;100.00
24390;BME280;12510;56.468;-3.004;2023-11-19T11:00:45;51989.66;;;-148.32;100.00
24390;BME280;12510;56.468;-3.004;2023-11-19T11:03:18;52178.78;;;-148.32;100.00
24390;BME280;12510;56.468;-3.004;2023-11-19T11:05:49;52204.66;;;-148.32;100.00
24390;BME280;12510;56.468;-3.004;2023-11-19T11:08:15;52274.31;;;-148.32;100.00
24390;BME280;12510;56.468;-3.004;2023-11-19T11:10:46;52318.13;;;-148.32;100.00
24390;BME280;12510;56.468;-3.004;2023-11-19T11:13:14;52210.63;;;-148.32;100.00
24390;BME280;12510;56.468;-3.004;2023-11-19T11:15:40;52278.31;;;-148.32;100.00
24390;BME280;12510;56.468;-3.004;2023-11-19T11:18:09;52140.94;;;-148.32;100.00
24390;BME280;12510;56.468;-3.004;2023-11-19T11:20:35;52314.16;;;-148.32;100.00
24390;BME280;12510;56.468;-3.004;2023-11-19T11:28:24;52334.06;;;-148.32;100.00
24390;BME280;12510;56.468;-3.004;2023-11-19T11:36:23;52441.56;;;-148.32;100.00
24390;BME280;12510;56.468;-3.004;2023-11-19T11:38:50;52477.41;;;-148.32;100.00
24390;BME280;12510;56.468;-3.004;2023-11-19T11:41:20;52509.25;;;-148.32;100.00
24390;BME280;12510;56.468;-3.004;2023-11-19T11:43:47;52481.38;;;-148.32;100.00
24390;BME280;12510;56.468;-3.004;2023-11-19T11:49:01;52515.22;;;-148.32;100.00
24390;BME280;12510;56.468;-3.004;2023-11-19T12:02:08;52429.63;;;-148.32;100.00
24390;BME280;12510;56.468;-3.004;2023-11-19T12:04:35;52574.97;;;-148.32;100.00
24390;BME280;12510;56.468;-3.004;2023-11-19T12:07:15;52662.56;;;-148.32;100.00
24390;BME280;12510;56.468;-3.004;2023-11-19T12:09:42;52592.88;;;-148.32;100.00
24390;BME280;12510;56.468;-3.004;2023-11-19T12:12:20;52660.56;;;-148.32;100.00
24390;BME280;12510;56.468;-3.004;2023-11-19T12:20:04;52557.03;;;-148.32;100.00
24390;BME280;12510;56.468;-3.004;2023-11-19T12:22:37;52676.50;;;-148.32;100.00
24390;BME280;12510;56.468;-3.004;2023-11-19T12:25:07;52648.63;;;-148.32;100.00
24390;BME280;12510;56.468;-3.004;2023-11-19T12:27:35;52682.47;;;-148.32;100.00
24390;BME280;12510;56.468;-3.004;2023-11-19T12:30:04;52668.53;;;-148.32;100.00
24390;BME280;12510;56.468;-3.004;2023-11-19T12:32:43;52618.75;;;-148.32;100.00
24390;BME280;12510;56.468;-3.004;2023-11-19T12:35:09;52640.66;;;-148.32;100.00
24390;BME280;12510;56.468;-3.004;2023-11-19T12:37:43;52668.53;;;-148.32;100.00
24390;BME280;12510;56.468;-3.004;2023-11-19T12:42:44;52634.69;;;-148.32;100.00
24390;BME280;12510;56.468;-3.004;2023-11-19T12:45:14;52682.47;;;-148.32;100.00
24390;BME280;12510;56.468;-3.004;2023-11-19T12:47:45;52670.53;;;-148.32;100.00
24390;BME280;12510;56.468;-3.004;2023-11-19T12:50:14;52668.53;;;-148.32;100.00
24390;BME280;12510;56.468;-3.004;2023-11-19T12:52:40;52636.69;;;-148.32;100.00
24390;BME280;12510;56.468;-3.004;2023-11-19T12:55:40;52694.41;;;-148.32;100.00
24390;BME280;12510;56.468;-3.004;2023-11-19T12:57:59;52722.28;;;-148.32;100.00
24390;BME280;12510;56.468;-3.004;2023-11-19T13:00:26;52668.53;;;-148.32;100.00